TYA401 URSS-UUDD
Flight info
| Callsign | TYA401 |
|---|---|
| Flight time | N/A |
| Altitude | 35000 |
| Route | K0828F350 IRGI1S IRGID A944 GUBOR G487 ERSAR DCT BEMES DCT VULFI/K0829F370 DCT TUVGI DCT EVZUN DCT ZIZAR DCT VAZLU DCT UZZID DCT NOKLI N72 WGD G481 OBABI T619 UMRAL P163 LADIM/K0848F360 P163 GOLRI L736 OLOPI OLOP3L |
| Aircraft | B738/M-SDFGHIJ1RWY/B1L |
Departure
| Time | 2026-05-01 13:18 |
|---|---|
| Airport | Sochi International Airport (URSS) |
Arrival
| Time | N/A |
|---|---|
| Airport | Domodedovo International Airport (UUDD) |
| Time | Latitude | Longitude | Altitude | Speed | Heading |
|---|---|---|---|---|---|
| 2026-05-01 12:59 | 43.44586 | 39.93926 | 72 ft | 0 kts | 4° |
| 2026-05-01 13:07 | 43.44586 | 39.93925 | 72 ft | 1 kts | 4° |
| 2026-05-01 13:07 | 43.44562 | 39.93923 | 69 ft | 4 kts | 5° |
| 2026-05-01 13:07 | 43.44536 | 39.93917 | 70 ft | 4 kts | 24° |
| 2026-05-01 13:08 | 43.44521 | 39.93901 | 61 ft | 1 kts | 64° |
| 2026-05-01 13:12 | 43.44521 | 39.93902 | 61 ft | 1 kts | 64° |
| 2026-05-01 13:13 | 43.44533 | 39.93935 | 62 ft | 7 kts | 64° |
| 2026-05-01 13:13 | 43.44560 | 39.94015 | 69 ft | 13 kts | 64° |
| 2026-05-01 13:13 | 43.44605 | 39.94145 | 69 ft | 15 kts | 65° |
| 2026-05-01 13:13 | 43.44648 | 39.94276 | 71 ft | 15 kts | 65° |
| 2026-05-01 13:14 | 43.44691 | 39.94403 | 70 ft | 15 kts | 64° |
| 2026-05-01 13:14 | 43.44748 | 39.94568 | 72 ft | 22 kts | 65° |
| 2026-05-01 13:14 | 43.44814 | 39.94762 | 72 ft | 22 kts | 65° |
| 2026-05-01 13:14 | 43.44915 | 39.94912 | 73 ft | 21 kts | 71° |
| 2026-05-01 13:15 | 43.44923 | 39.95077 | 82 ft | 7 kts | 70° |
| 2026-05-01 13:15 | 43.44940 | 39.95135 | 81 ft | 4 kts | 77° |
| 2026-05-01 13:15 | 43.44930 | 39.95167 | 84 ft | 4 kts | 144° |
| 2026-05-01 13:15 | 43.44905 | 39.95183 | 82 ft | 4 kts | 153° |
| 2026-05-01 13:16 | 43.44880 | 39.95210 | 82 ft | 5 kts | 118° |
| 2026-05-01 13:16 | 43.44864 | 39.95234 | 83 ft | 3 kts | 173° |
| 2026-05-01 13:16 | 43.44848 | 39.95212 | 80 ft | 4 kts | 241° |
| 2026-05-01 13:17 | 43.44829 | 39.95158 | 81 ft | 10 kts | 244° |
| 2026-05-01 13:17 | 43.44703 | 39.94787 | 72 ft | 83 kts | 244° |
| 2026-05-01 13:18 | 43.43831 | 39.92248 | 427 ft | 182 kts | 245° |
| 2026-05-01 13:18 | 43.43329 | 39.90703 | 1538 ft | 173 kts | 252° |
| 2026-05-01 13:18 | 43.43053 | 39.89056 | 2267 ft | 182 kts | 264° |
| 2026-05-01 13:18 | 43.43070 | 39.87192 | 2578 ft | 209 kts | 277° |
| 2026-05-01 13:19 | 43.43461 | 39.85157 | 2797 ft | 231 kts | 291° |
| 2026-05-01 13:19 | 43.44251 | 39.83143 | 3088 ft | 252 kts | 303° |
| 2026-05-01 13:19 | 43.46510 | 39.79147 | 4291 ft | 271 kts | 307° |
| 2026-05-01 13:20 | 43.47700 | 39.77100 | 5006 ft | 276 kts | 306° |
| 2026-05-01 13:20 | 43.48892 | 39.75025 | 5795 ft | 277 kts | 305° |
| 2026-05-01 13:20 | 43.50083 | 39.72927 | 6554 ft | 279 kts | 304° |
| 2026-05-01 13:21 | 43.52459 | 39.68692 | 8014 ft | 282 kts | 303° |
| 2026-05-01 13:21 | 43.53658 | 39.66542 | 8748 ft | 284 kts | 303° |
| 2026-05-01 13:21 | 43.54857 | 39.64385 | 9472 ft | 285 kts | 302° |
| 2026-05-01 13:21 | 43.56073 | 39.62194 | 10171 ft | 287 kts | 302° |
| 2026-05-01 13:22 | 43.57317 | 39.59944 | 10446 ft | 305 kts | 302° |
| 2026-05-01 13:22 | 43.58646 | 39.57535 | 10617 ft | 326 kts | 302° |
| 2026-05-01 13:22 | 43.60076 | 39.55013 | 10881 ft | 343 kts | 308° |
| 2026-05-01 13:22 | 43.62067 | 39.53064 | 11354 ft | 361 kts | 335° |
| 2026-05-01 13:23 | 43.64566 | 39.52431 | 11962 ft | 373 kts | 358° |
| 2026-05-01 13:23 | 43.67149 | 39.53011 | 12535 ft | 382 kts | 17° |
| 2026-05-01 13:23 | 43.69524 | 39.54700 | 13065 ft | 389 kts | 37° |
| 2026-05-01 13:23 | 43.71406 | 39.57389 | 13620 ft | 391 kts | 57° |
| 2026-05-01 13:24 | 43.72562 | 39.60657 | 14115 ft | 389 kts | 76° |
| 2026-05-01 13:24 | 43.73277 | 39.64317 | 14650 ft | 390 kts | 80° |
| 2026-05-01 13:24 | 43.73896 | 39.67999 | 15136 ft | 395 kts | 81° |
| 2026-05-01 13:25 | 43.75163 | 39.75482 | 16089 ft | 404 kts | 80° |
| 2026-05-01 13:25 | 43.75844 | 39.79262 | 16535 ft | 409 kts | 78° |
| 2026-05-01 13:25 | 43.76577 | 39.83088 | 17004 ft | 413 kts | 79° |
| 2026-05-01 13:25 | 43.77271 | 39.86957 | 17555 ft | 415 kts | 80° |
| 2026-05-01 13:26 | 43.77970 | 39.90857 | 17977 ft | 420 kts | 80° |
| 2026-05-01 13:26 | 43.78592 | 39.94823 | 18311 ft | 423 kts | 83° |
| 2026-05-01 13:26 | 43.79121 | 39.98838 | 18727 ft | 424 kts | 84° |
| 2026-05-01 13:26 | 43.79618 | 40.02866 | 19244 ft | 425 kts | 84° |
| 2026-05-01 13:27 | 43.80111 | 40.06916 | 19607 ft | 430 kts | 84° |
| 2026-05-01 13:27 | 43.80618 | 40.11035 | 19888 ft | 437 kts | 84° |
| 2026-05-01 13:27 | 43.81662 | 40.19362 | 20849 ft | 440 kts | 84° |
| 2026-05-01 13:28 | 43.82732 | 40.27787 | 21639 ft | 447 kts | 84° |
| 2026-05-01 13:28 | 43.83271 | 40.32032 | 22064 ft | 449 kts | 84° |
| 2026-05-01 13:29 | 43.84351 | 40.40615 | 22819 ft | 455 kts | 84° |
| 2026-05-01 13:29 | 43.85446 | 40.49310 | 23560 ft | 460 kts | 84° |
| 2026-05-01 13:30 | 43.87626 | 40.66865 | 24731 ft | 469 kts | 84° |
| 2026-05-01 13:31 | 43.89398 | 40.75605 | 25340 ft | 476 kts | 68° |
| 2026-05-01 13:31 | 43.93476 | 40.88269 | 26140 ft | 482 kts | 68° |
| 2026-05-01 13:32 | 43.96169 | 40.96840 | 26668 ft | 485 kts | 68° |
| 2026-05-01 13:33 | 44.00170 | 41.09817 | 27433 ft | 490 kts | 68° |
| 2026-05-01 13:33 | 44.02852 | 41.18555 | 27917 ft | 493 kts | 68° |
| 2026-05-01 13:34 | 44.05543 | 41.27344 | 28354 ft | 496 kts | 68° |
| 2026-05-01 13:34 | 44.08243 | 41.36189 | 28758 ft | 499 kts | 68° |
| 2026-05-01 13:35 | 44.10829 | 41.45184 | 29120 ft | 501 kts | 76° |
| 2026-05-01 13:35 | 44.11559 | 41.49907 | 29326 ft | 499 kts | 85° |
| 2026-05-01 13:35 | 44.11637 | 41.59493 | 29725 ft | 495 kts | 96° |
| 2026-05-01 13:36 | 44.11462 | 41.64218 | 29873 ft | 497 kts | 96° |
| 2026-05-01 13:36 | 44.11288 | 41.69103 | 30054 ft | 498 kts | 96° |
| 2026-05-01 13:36 | 44.10984 | 41.78728 | 30427 ft | 498 kts | 96° |
| 2026-05-01 13:37 | 44.10845 | 41.83540 | 30648 ft | 497 kts | 96° |
| 2026-05-01 13:37 | 44.10710 | 41.88349 | 30839 ft | 497 kts | 96° |
| 2026-05-01 13:37 | 44.10576 | 41.93089 | 31013 ft | 497 kts | 96° |
| 2026-05-01 13:37 | 44.10439 | 41.97898 | 31177 ft | 497 kts | 96° |
| 2026-05-01 13:38 | 44.10157 | 42.07513 | 31554 ft | 497 kts | 96° |
| 2026-05-01 13:38 | 44.10012 | 42.12305 | 31723 ft | 496 kts | 96° |
| 2026-05-01 13:38 | 44.09865 | 42.17110 | 31868 ft | 497 kts | 96° |
| 2026-05-01 13:39 | 44.09715 | 42.21911 | 32010 ft | 497 kts | 96° |
| 2026-05-01 13:39 | 44.09563 | 42.26711 | 32183 ft | 497 kts | 96° |
| 2026-05-01 13:39 | 44.09410 | 42.31508 | 32359 ft | 496 kts | 96° |
| 2026-05-01 13:39 | 44.09254 | 42.36310 | 32501 ft | 497 kts | 96° |
| 2026-05-01 13:40 | 44.09097 | 42.41108 | 32637 ft | 497 kts | 97° |
| 2026-05-01 13:40 | 44.08937 | 42.45912 | 32793 ft | 497 kts | 97° |
| 2026-05-01 13:40 | 44.08776 | 42.50698 | 32965 ft | 496 kts | 97° |
| 2026-05-01 13:40 | 44.08613 | 42.55492 | 33126 ft | 496 kts | 97° |
| 2026-05-01 13:41 | 44.08447 | 42.60281 | 33270 ft | 496 kts | 97° |
| 2026-05-01 13:41 | 44.08280 | 42.65076 | 33416 ft | 496 kts | 97° |
| 2026-05-01 13:41 | 44.08111 | 42.69863 | 33562 ft | 495 kts | 97° |
| 2026-05-01 13:41 | 44.07942 | 42.74576 | 33707 ft | 495 kts | 97° |
| 2026-05-01 13:42 | 44.07767 | 42.79416 | 33863 ft | 494 kts | 97° |
| 2026-05-01 13:42 | 44.07592 | 42.84185 | 34005 ft | 494 kts | 97° |
| 2026-05-01 13:42 | 44.07418 | 42.88895 | 34150 ft | 493 kts | 97° |
| 2026-05-01 13:42 | 44.07239 | 42.93711 | 34314 ft | 491 kts | 97° |
| 2026-05-01 13:43 | 44.07062 | 42.98391 | 34448 ft | 491 kts | 97° |
| 2026-05-01 13:43 | 44.06881 | 43.03121 | 34564 ft | 490 kts | 97° |
| 2026-05-01 13:43 | 44.06698 | 43.07853 | 34681 ft | 490 kts | 97° |
| 2026-05-01 13:43 | 44.06513 | 43.12574 | 34797 ft | 489 kts | 97° |
| 2026-05-01 13:44 | 44.06326 | 43.17307 | 34920 ft | 488 kts | 97° |
| 2026-05-01 13:44 | 44.05948 | 43.26720 | 35005 ft | 489 kts | 97° |
| 2026-05-01 13:45 | 44.05560 | 43.36166 | 35000 ft | 489 kts | 97° |
| 2026-05-01 13:45 | 44.05166 | 43.45603 | 34985 ft | 489 kts | 97° |
| 2026-05-01 13:46 | 44.04764 | 43.55039 | 34971 ft | 489 kts | 97° |
| 2026-05-01 13:46 | 44.04354 | 43.64480 | 34967 ft | 489 kts | 98° |
| 2026-05-01 13:47 | 44.03937 | 43.73897 | 34957 ft | 488 kts | 98° |
| 2026-05-01 13:47 | 44.03513 | 43.83316 | 34959 ft | 488 kts | 98° |
| 2026-05-01 13:48 | 44.03084 | 43.92654 | 34961 ft | 487 kts | 98° |
| 2026-05-01 13:48 | 44.02645 | 44.02037 | 34962 ft | 486 kts | 98° |
| 2026-05-01 13:49 | 44.02199 | 44.11420 | 34962 ft | 486 kts | 98° |
| 2026-05-01 13:49 | 44.01745 | 44.20784 | 34965 ft | 486 kts | 98° |
| 2026-05-01 13:50 | 44.01285 | 44.30141 | 34968 ft | 485 kts | 98° |
| 2026-05-01 13:50 | 44.00817 | 44.39486 | 34974 ft | 485 kts | 98° |
| 2026-05-01 13:51 | 44.00342 | 44.48817 | 34975 ft | 485 kts | 98° |
| 2026-05-01 13:51 | 43.99862 | 44.58106 | 34975 ft | 485 kts | 98° |
| 2026-05-01 13:52 | 43.99372 | 44.67436 | 34974 ft | 485 kts | 98° |
| 2026-05-01 13:52 | 43.98875 | 44.76767 | 34970 ft | 485 kts | 98° |
| 2026-05-01 13:53 | 43.98369 | 44.86102 | 34966 ft | 485 kts | 98° |
| 2026-05-01 13:53 | 43.97596 | 45.00108 | 34961 ft | 485 kts | 98° |
| 2026-05-01 13:54 | 43.97071 | 45.09442 | 34958 ft | 486 kts | 98° |
| 2026-05-01 13:54 | 43.96538 | 45.18792 | 34958 ft | 486 kts | 98° |
| 2026-05-01 13:55 | 43.95996 | 45.28157 | 34954 ft | 486 kts | 98° |
| 2026-05-01 13:55 | 43.95541 | 45.35928 | 34951 ft | 487 kts | 98° |
| 2026-05-01 13:56 | 43.94984 | 45.45304 | 34947 ft | 487 kts | 98° |
| 2026-05-01 13:56 | 43.94420 | 45.54671 | 34949 ft | 488 kts | 98° |
| 2026-05-01 13:57 | 43.93848 | 45.64050 | 34956 ft | 488 kts | 98° |
| 2026-05-01 13:57 | 43.93267 | 45.73445 | 34951 ft | 489 kts | 98° |
| 2026-05-01 13:58 | 43.92679 | 45.82844 | 34956 ft | 489 kts | 98° |
| 2026-05-01 13:58 | 43.92303 | 45.92264 | 34941 ft | 492 kts | 88° |
| 2026-05-01 13:59 | 43.92995 | 46.01722 | 34960 ft | 493 kts | 85° |
| 2026-05-01 13:59 | 43.93781 | 46.11165 | 34963 ft | 493 kts | 85° |
| 2026-05-01 14:00 | 43.94509 | 46.20631 | 34973 ft | 493 kts | 86° |
| 2026-05-01 14:00 | 43.95184 | 46.30045 | 34974 ft | 493 kts | 86° |
| 2026-05-01 14:01 | 43.95849 | 46.39584 | 34971 ft | 493 kts | 86° |
| 2026-05-01 14:01 | 43.96556 | 46.49830 | 34967 ft | 493 kts | 86° |
| 2026-05-01 14:02 | 43.97202 | 46.59288 | 34976 ft | 492 kts | 86° |
| 2026-05-01 14:02 | 43.97843 | 46.68753 | 34975 ft | 492 kts | 86° |
| 2026-05-01 14:03 | 43.98473 | 46.78189 | 34987 ft | 491 kts | 86° |
| 2026-05-01 14:03 | 43.99095 | 46.87636 | 34998 ft | 490 kts | 86° |
| 2026-05-01 14:04 | 43.99709 | 46.97057 | 34995 ft | 490 kts | 86° |
| 2026-05-01 14:04 | 44.00212 | 47.04883 | 35002 ft | 489 kts | 86° |
| 2026-05-01 14:05 | 44.00908 | 47.15848 | 35006 ft | 488 kts | 86° |
| 2026-05-01 14:05 | 44.01497 | 47.25267 | 35009 ft | 487 kts | 87° |
| 2026-05-01 14:06 | 44.02077 | 47.34646 | 35014 ft | 487 kts | 87° |
| 2026-05-01 14:06 | 44.02647 | 47.44002 | 35017 ft | 486 kts | 87° |
| 2026-05-01 14:07 | 44.03208 | 47.53348 | 35022 ft | 486 kts | 87° |
| 2026-05-01 14:08 | 44.04038 | 47.67401 | 35028 ft | 486 kts | 87° |
| 2026-05-01 14:08 | 44.04581 | 47.76756 | 35037 ft | 485 kts | 87° |
| 2026-05-01 14:09 | 44.05116 | 47.86107 | 35036 ft | 486 kts | 87° |
| 2026-05-01 14:09 | 44.05644 | 47.95471 | 35039 ft | 486 kts | 88° |
| 2026-05-01 14:10 | 44.06165 | 48.04848 | 35038 ft | 486 kts | 88° |
| 2026-05-01 14:10 | 44.06677 | 48.14212 | 35044 ft | 486 kts | 88° |
| 2026-05-01 14:11 | 44.07180 | 48.23534 | 35051 ft | 487 kts | 88° |
| 2026-05-01 14:11 | 44.07926 | 48.37613 | 35049 ft | 487 kts | 88° |
| 2026-05-01 14:12 | 44.08418 | 48.47019 | 35057 ft | 487 kts | 88° |
| 2026-05-01 14:12 | 44.08902 | 48.56427 | 35055 ft | 487 kts | 88° |
| 2026-05-01 14:13 | 44.09302 | 48.64300 | 35057 ft | 487 kts | 88° |
| 2026-05-01 14:13 | 44.09848 | 48.75237 | 35060 ft | 487 kts | 88° |
| 2026-05-01 14:14 | 44.10310 | 48.84649 | 35061 ft | 487 kts | 88° |
| 2026-05-01 14:14 | 44.11151 | 48.93978 | 35037 ft | 489 kts | 69° |
| 2026-05-01 14:15 | 44.12733 | 48.98140 | 35080 ft | 486 kts | 51° |
| 2026-05-01 14:15 | 44.15056 | 49.01517 | 35068 ft | 481 kts | 34° |
| 2026-05-01 14:15 | 44.17890 | 49.03902 | 35075 ft | 473 kts | 18° |
| 2026-05-01 14:15 | 44.21013 | 49.05166 | 35075 ft | 463 kts | 2° |
| 2026-05-01 14:16 | 44.26254 | 49.04933 | 35061 ft | 448 kts | 339° |
| 2026-05-01 14:16 | 44.32920 | 49.01300 | 35077 ft | 443 kts | 331° |
| 2026-05-01 14:17 | 44.37669 | 48.98432 | 35077 ft | 446 kts | 331° |
| 2026-05-01 14:17 | 44.43401 | 48.95014 | 35075 ft | 448 kts | 331° |
| 2026-05-01 14:18 | 44.49166 | 48.91627 | 35078 ft | 450 kts | 332° |
| 2026-05-01 14:18 | 44.54920 | 48.88263 | 35076 ft | 451 kts | 332° |
| 2026-05-01 14:19 | 44.60753 | 48.84848 | 35076 ft | 451 kts | 332° |
| 2026-05-01 14:19 | 44.66499 | 48.81475 | 35077 ft | 450 kts | 332° |
| 2026-05-01 14:20 | 44.75133 | 48.76390 | 35075 ft | 447 kts | 332° |
| 2026-05-01 14:21 | 44.80849 | 48.73015 | 35082 ft | 445 kts | 331° |
| 2026-05-01 14:21 | 44.86549 | 48.69641 | 35080 ft | 443 kts | 331° |
| 2026-05-01 14:22 | 44.95055 | 48.64592 | 35084 ft | 441 kts | 331° |
| 2026-05-01 14:22 | 45.00680 | 48.61244 | 35082 ft | 441 kts | 331° |
| 2026-05-01 14:23 | 45.06328 | 48.57874 | 35088 ft | 441 kts | 331° |
| 2026-05-01 14:23 | 45.11982 | 48.54495 | 35085 ft | 441 kts | 331° |
| 2026-05-01 14:24 | 45.17640 | 48.51105 | 35092 ft | 442 kts | 331° |
| 2026-05-01 14:24 | 45.23304 | 48.47705 | 35088 ft | 443 kts | 331° |
| 2026-05-01 14:25 | 45.28981 | 48.44289 | 35093 ft | 443 kts | 330° |
| 2026-05-01 14:25 | 45.34667 | 48.40861 | 35093 ft | 444 kts | 330° |
| 2026-05-01 14:26 | 45.43208 | 48.35698 | 35091 ft | 445 kts | 330° |
| 2026-05-01 14:27 | 45.48919 | 48.32236 | 35091 ft | 446 kts | 330° |
| 2026-05-01 14:27 | 45.54633 | 48.28765 | 35088 ft | 446 kts | 330° |
| 2026-05-01 14:28 | 45.63155 | 48.23572 | 35091 ft | 446 kts | 330° |
| 2026-05-01 14:28 | 45.68863 | 48.20086 | 35088 ft | 446 kts | 330° |
| 2026-05-01 14:29 | 45.74573 | 48.16590 | 35083 ft | 445 kts | 330° |
| 2026-05-01 14:30 | 45.85943 | 48.09604 | 35088 ft | 444 kts | 329° |
| 2026-05-01 14:31 | 45.94444 | 48.04360 | 35093 ft | 442 kts | 329° |
| 2026-05-01 14:31 | 46.00055 | 48.00889 | 35091 ft | 442 kts | 329° |
| 2026-05-01 14:32 | 46.05638 | 47.97264 | 35088 ft | 434 kts | 321° |
| 2026-05-01 14:32 | 46.08047 | 47.94763 | 35102 ft | 422 kts | 311° |
| 2026-05-01 14:32 | 46.10084 | 47.91776 | 35098 ft | 414 kts | 302° |
| 2026-05-01 14:33 | 46.13228 | 47.84954 | 35100 ft | 408 kts | 296° |
| 2026-05-01 14:33 | 46.16287 | 47.78053 | 35099 ft | 409 kts | 296° |
| 2026-05-01 14:34 | 46.19387 | 47.71147 | 35101 ft | 410 kts | 296° |
| 2026-05-01 14:34 | 46.22500 | 47.64223 | 35098 ft | 412 kts | 296° |
| 2026-05-01 14:35 | 46.25609 | 47.57289 | 35092 ft | 413 kts | 296° |
| 2026-05-01 14:35 | 46.28741 | 47.50294 | 35085 ft | 413 kts | 296° |
| 2026-05-01 14:36 | 46.31842 | 47.43354 | 35088 ft | 414 kts | 296° |
| 2026-05-01 14:36 | 46.34960 | 47.36357 | 35093 ft | 414 kts | 296° |
| 2026-05-01 14:37 | 46.38070 | 47.29360 | 35097 ft | 413 kts | 296° |
| 2026-05-01 14:37 | 46.41200 | 47.22300 | 35096 ft | 413 kts | 296° |
| 2026-05-01 14:38 | 46.44275 | 47.15347 | 35101 ft | 412 kts | 296° |
| 2026-05-01 14:38 | 46.47361 | 47.08352 | 35102 ft | 411 kts | 296° |
| 2026-05-01 14:39 | 46.50445 | 47.01342 | 35105 ft | 411 kts | 296° |
| 2026-05-01 14:39 | 46.53513 | 46.94351 | 35109 ft | 410 kts | 296° |
| 2026-05-01 14:40 | 46.56570 | 46.87369 | 35112 ft | 409 kts | 295° |
| 2026-05-01 14:40 | 46.59623 | 46.80376 | 35113 ft | 409 kts | 295° |
| 2026-05-01 14:41 | 46.62671 | 46.73378 | 35116 ft | 409 kts | 295° |
| 2026-05-01 14:41 | 46.65706 | 46.66391 | 35123 ft | 409 kts | 295° |
| 2026-05-01 14:42 | 46.68724 | 46.59428 | 35123 ft | 409 kts | 295° |
| 2026-05-01 14:42 | 46.71755 | 46.52417 | 35126 ft | 409 kts | 295° |
| 2026-05-01 14:43 | 46.74777 | 46.45406 | 35128 ft | 409 kts | 295° |
| 2026-05-01 14:43 | 46.77799 | 46.38379 | 35132 ft | 409 kts | 295° |
| 2026-05-01 14:44 | 46.80816 | 46.31346 | 35135 ft | 409 kts | 295° |
| 2026-05-01 14:44 | 46.85330 | 46.20788 | 35138 ft | 409 kts | 295° |
| 2026-05-01 14:45 | 46.89844 | 46.10196 | 35134 ft | 409 kts | 295° |
| 2026-05-01 14:46 | 46.93692 | 46.03872 | 35142 ft | 426 kts | 313° |
| 2026-05-01 14:46 | 46.98838 | 45.99340 | 35157 ft | 442 kts | 326° |
| 2026-05-01 14:46 | 47.01626 | 45.97429 | 35148 ft | 443 kts | 326° |
| 2026-05-01 14:47 | 47.07216 | 45.93638 | 35150 ft | 442 kts | 326° |
| 2026-05-01 14:48 | 47.15553 | 45.87862 | 35150 ft | 441 kts | 325° |
| 2026-05-01 14:48 | 47.23861 | 45.82015 | 35153 ft | 440 kts | 325° |
| 2026-05-01 14:49 | 47.34902 | 45.74209 | 35161 ft | 439 kts | 325° |
| 2026-05-01 14:50 | 47.45916 | 45.66390 | 35156 ft | 439 kts | 324° |
| 2026-05-01 14:51 | 47.54118 | 45.60543 | 35159 ft | 437 kts | 324° |
| 2026-05-01 14:52 | 47.62327 | 45.54669 | 35161 ft | 436 kts | 324° |
| 2026-05-01 14:53 | 47.70522 | 45.48784 | 35157 ft | 435 kts | 324° |
| 2026-05-01 14:53 | 47.75970 | 45.44863 | 35158 ft | 435 kts | 324° |
| 2026-05-01 14:54 | 47.81129 | 45.40450 | 35159 ft | 417 kts | 311° |
| 2026-05-01 14:54 | 47.85363 | 45.34685 | 35162 ft | 411 kts | 308° |
| 2026-05-01 14:55 | 47.89575 | 45.28902 | 35166 ft | 412 kts | 308° |
| 2026-05-01 14:55 | 47.93812 | 45.23147 | 35163 ft | 412 kts | 308° |
| 2026-05-01 14:56 | 47.98093 | 45.17337 | 35164 ft | 413 kts | 308° |
| 2026-05-01 14:56 | 48.02350 | 45.11572 | 35163 ft | 415 kts | 310° |
| 2026-05-01 14:57 | 48.07128 | 45.06487 | 35160 ft | 425 kts | 316° |
| 2026-05-01 14:57 | 48.14557 | 44.99211 | 35159 ft | 425 kts | 316° |
| 2026-05-01 14:58 | 48.19481 | 44.94296 | 35163 ft | 425 kts | 316° |
| 2026-05-01 14:58 | 48.24399 | 44.89338 | 35164 ft | 425 kts | 316° |
| 2026-05-01 14:59 | 48.28482 | 44.85205 | 35160 ft | 426 kts | 316° |
| 2026-05-01 14:59 | 48.33384 | 44.80235 | 35163 ft | 426 kts | 316° |
| 2026-05-01 15:00 | 48.40749 | 44.72748 | 35155 ft | 425 kts | 316° |
| 2026-05-01 15:01 | 48.45644 | 44.67758 | 35164 ft | 425 kts | 316° |
| 2026-05-01 15:01 | 48.50498 | 44.62798 | 35164 ft | 424 kts | 315° |
| 2026-05-01 15:02 | 48.55380 | 44.57795 | 35156 ft | 424 kts | 315° |
| 2026-05-01 15:02 | 48.60254 | 44.52783 | 35160 ft | 423 kts | 315° |
| 2026-05-01 15:03 | 48.65114 | 44.47774 | 35158 ft | 422 kts | 315° |
| 2026-05-01 15:03 | 48.69963 | 44.42762 | 35159 ft | 422 kts | 315° |
| 2026-05-01 15:04 | 48.74803 | 44.37750 | 35164 ft | 422 kts | 315° |
| 2026-05-01 15:04 | 48.79894 | 44.33160 | 35152 ft | 438 kts | 328° |
| 2026-05-01 15:05 | 48.85652 | 44.29939 | 35163 ft | 442 kts | 330° |
| 2026-05-01 15:05 | 48.91431 | 44.26772 | 35161 ft | 441 kts | 329° |
| 2026-05-01 15:06 | 48.97190 | 44.23548 | 35165 ft | 441 kts | 329° |
| 2026-05-01 15:06 | 49.02950 | 44.20278 | 35168 ft | 441 kts | 329° |
| 2026-05-01 15:07 | 49.08709 | 44.16993 | 35162 ft | 442 kts | 329° |
| 2026-05-01 15:07 | 49.14471 | 44.13699 | 35167 ft | 443 kts | 329° |
| 2026-05-01 15:08 | 49.20249 | 44.10389 | 35169 ft | 444 kts | 329° |
| 2026-05-01 15:08 | 49.25996 | 44.07089 | 35169 ft | 445 kts | 329° |
| 2026-05-01 15:09 | 49.31794 | 44.03752 | 35168 ft | 446 kts | 330° |
| 2026-05-01 15:09 | 49.37601 | 44.00400 | 35167 ft | 446 kts | 330° |
| 2026-05-01 15:10 | 49.43419 | 43.97034 | 35166 ft | 447 kts | 330° |
| 2026-05-01 15:10 | 49.52129 | 43.91924 | 35163 ft | 444 kts | 327° |
| 2026-05-01 15:11 | 49.60204 | 43.85288 | 35164 ft | 437 kts | 322° |
| 2026-05-01 15:12 | 49.65509 | 43.80708 | 35167 ft | 437 kts | 322° |
| 2026-05-01 15:12 | 49.73517 | 43.73910 | 35169 ft | 438 kts | 323° |
| 2026-05-01 15:14 | 49.86855 | 43.62632 | 35166 ft | 438 kts | 323° |
| 2026-05-01 15:14 | 49.94890 | 43.55802 | 35170 ft | 439 kts | 323° |
| 2026-05-01 15:15 | 50.05603 | 43.46655 | 35175 ft | 441 kts | 324° |
| 2026-05-01 15:16 | 50.16387 | 43.37400 | 35166 ft | 443 kts | 324° |
| 2026-05-01 15:18 | 50.29909 | 43.25726 | 35183 ft | 446 kts | 324° |
| 2026-05-01 15:19 | 50.40793 | 43.16275 | 35174 ft | 448 kts | 324° |
| 2026-05-01 15:19 | 50.48935 | 43.09171 | 35176 ft | 449 kts | 324° |
| 2026-05-01 15:20 | 50.57121 | 43.02001 | 35178 ft | 449 kts | 324° |
| 2026-05-01 15:21 | 50.62576 | 42.97205 | 35170 ft | 449 kts | 325° |
| 2026-05-01 15:21 | 50.68022 | 42.92408 | 35177 ft | 449 kts | 325° |
| 2026-05-01 15:22 | 50.76786 | 42.86781 | 35181 ft | 456 kts | 335° |
| 2026-05-01 15:22 | 50.82794 | 42.83582 | 35181 ft | 456 kts | 335° |
| 2026-05-01 15:23 | 50.88793 | 42.80310 | 35186 ft | 455 kts | 335° |
| 2026-05-01 15:23 | 50.94732 | 42.77000 | 35188 ft | 455 kts | 335° |
| 2026-05-01 15:24 | 51.00697 | 42.73645 | 35184 ft | 455 kts | 335° |
| 2026-05-01 15:24 | 51.06668 | 42.70277 | 35181 ft | 455 kts | 335° |
| 2026-05-01 15:25 | 51.12627 | 42.66909 | 35182 ft | 455 kts | 335° |
| 2026-05-01 15:25 | 51.18584 | 42.63535 | 35187 ft | 454 kts | 336° |
| 2026-05-01 15:26 | 51.24554 | 42.60143 | 35186 ft | 454 kts | 336° |
| 2026-05-01 15:26 | 51.30506 | 42.56753 | 35189 ft | 454 kts | 336° |
| 2026-05-01 15:27 | 51.36458 | 42.53353 | 35194 ft | 454 kts | 336° |
| 2026-05-01 15:28 | 51.45396 | 42.48230 | 35191 ft | 454 kts | 336° |
| 2026-05-01 15:28 | 51.51348 | 42.44807 | 35191 ft | 454 kts | 336° |
| 2026-05-01 15:29 | 51.60276 | 42.39654 | 35191 ft | 454 kts | 336° |
| 2026-05-01 15:30 | 51.72182 | 42.32748 | 35190 ft | 454 kts | 336° |
| 2026-05-01 15:31 | 51.89962 | 42.22363 | 35192 ft | 453 kts | 336° |
| 2026-05-01 15:32 | 52.01819 | 42.15388 | 35190 ft | 453 kts | 336° |
| 2026-05-01 15:34 | 52.19655 | 42.05211 | 35191 ft | 453 kts | 339° |